Time;durP1;ratioP1;P1;durP2;ratioP2;P2;SDS_P1;SDS_P2;PMS_P1;PMS_P2;Temp;Humidity;BMP_temperature;BMP_pressure;BME280_temperature;BME280_humidity;BME280_pressure;Samples;Min_cycle;Max_cycle;Signal;HPM_P1;HPM_P2
2021/07/26 00:29:22;;;;;;;;;;;;;;;;;;;;;
2021/07/26 01:00:29;;;;;;;;;;;;;;;;;;;;;
2021/07/26 02:04:50;;;;;;;6.32;3.60;;;18.70;99.90;;;;;;4744894;30;20144;-78
2021/07/26 02:24:11;;;;;;;;;;;;;;;;;;;;;
2021/07/26 02:53:26;;;;;;;7.70;3.42;;;18.80;99.90;;;;;;4767671;30;20054;-78
2021/07/26 03:37:34;;;;;;;;;;;;;;;;;;;;;
2021/07/26 03:56:40;;;;;;;;;;;;;;;;;;;;;
2021/07/26 04:41:06;;;;;;;;;;;;;;;;;;;;;
2021/07/26 04:51:50;;;;;;;8.65;4.03;;;18.10;99.90;;;;;;4650955;30;20173;-78
2021/07/26 05:15:03;;;;;;;;;;;;;;;;;;;;;
2021/07/26 05:30:48;;;;;;;;;;;;;;;;;;;;;
2021/07/26 05:34:13;;;;;;;13.00;6.00;;;18.80;99.90;;;;;;4733017;30;20538;-78
2021/07/26 05:49:50;;;;;;;13.55;5.50;;;19.20;99.90;;;;;;4716810;29;20063;-78
2021/07/26 05:52:17;;;;;;;10.70;4.85;;;19.30;99.90;;;;;;4731662;30;20510;-78
2021/07/26 05:54:43;;;;;;;9.27;5.60;;;19.40;99.90;;;;;;4712853;30;20911;-78
2021/07/26 05:57:14;;;;;;;10.88;5.30;;;19.50;99.90;;;;;;4717832;30;20119;-78
2021/07/26 05:59:40;;;;;;;12.93;5.95;;;19.50;99.90;;;;;;4720230;30;20047;-78
2021/07/26 06:02:11;;;;;;;13.85;5.30;;;19.50;99.90;;;;;;4713590;30;20060;-78
2021/07/26 06:04:37;;;;;;;10.07;5.30;;;19.30;99.90;;;;;;4724713;30;20072;-78
2021/07/26 06:07:05;;;;;;;11.73;5.13;;;19.30;99.90;;;;;;4709719;30;20055;-78
2021/07/26 06:09:37;;;;;;;9.25;4.95;;;19.30;99.90;;;;;;4707873;30;20040;-78
2021/07/26 06:12:17;;;;;;;10.93;5.22;;;19.30;99.90;;;;;;4711542;30;20051;-78
2021/07/26 06:14:51;;;;;;;11.23;5.65;;;19.30;99.90;;;;;;4732731;30;20038;-78
2021/07/26 06:17:19;;;;;;;9.48;4.90;;;19.40;99.90;;;;;;4721472;30;20047;-78
2021/07/26 07:30:20;;;;;;;9.57;4.20;;;20.90;99.90;;;;;;1345318;27;20685;-78
2021/07/26 07:36:47;;;;;;;;;;;;;;;;;;;;;
2021/07/26 07:43:43;;;;;;;8.23;3.38;;;21.40;99.90;;;;;;4645371;30;20647;-78
2021/07/26 08:15:18;;;;;;;8.10;4.50;;;22.70;98.90;;;;;;4719527;30;20510;-78
2021/07/26 08:18:12;;;;;;;8.40;4.00;;;23.30;98.60;;;;;;4701457;30;20488;-78
2021/07/26 08:20:51;;;;;;;10.85;3.70;;;23.20;98.30;;;;;;4711748;30;20049;-78
2021/07/26 08:23:47;;;;;;;9.15;3.90;;;23.20;97.50;;;;;;4710949;30;20060;-78
2021/07/26 08:30:04;;;;;;;;;;;;;;;;;;;;;
2021/07/26 08:47:04;;;;;;;5.82;2.75;;;23.70;96.80;;;;;;4701567;30;20139;-79
2021/07/26 08:50:14;;;;;;;;;;;;;;;;;;;;;
2021/07/26 08:53:27;;;;;;;;;;;;;;;;;;;;;
2021/07/26 08:56:52;;;;;;;;;;;;;;;;;;;;;
2021/07/26 09:00:25;;;;;;;;;;;;;;;;;;;;;
2021/07/26 09:11:46;;;;;;;6.20;2.67;;;25.20;95.80;;;;;;4735250;29;20310;-78
2021/07/26 09:19:03;;;;;;;;;;;;;;;;;;;;;
2021/07/26 09:21:56;;;;;;;9.98;3.30;;;24.80;96.50;;;;;;4614567;31;20077;-79
2021/07/26 09:24:29;;;;;;;6.20;3.15;;;25.00;96.90;;;;;;4649402;30;20054;-78
2021/07/26 09:27:10;;;;;;;8.55;2.88;;;24.80;96.60;;;;;;4678244;30;20227;-79
2021/07/26 09:29:36;;;;;;;5.88;2.60;;;24.90;96.40;;;;;;4674045;30;20287;-78
2021/07/26 09:32:05;;;;;;;8.20;3.35;;;25.10;96.40;;;;;;4669292;30;20057;-78
2021/07/26 09:34:35;;;;;;;7.57;3.00;;;25.00;96.50;;;;;;4666079;30;20430;-79
2021/07/26 09:37:02;;;;;;;7.28;2.90;;;25.00;96.10;;;;;;4662063;30;20081;-79
2021/07/26 09:39:30;;;;;;;12.82;3.70;;;25.00;95.90;;;;;;4689511;30;20404;-78
2021/07/26 09:41:59;;;;;;;10.02;3.42;;;25.20;96.30;;;;;;4678633;30;20052;-78
2021/07/26 09:44:26;;;;;;;7.68;3.20;;;25.10;95.80;;;;;;4695713;30;20600;-78
2021/07/26 09:46:55;;;;;;;6.25;3.10;;;25.20;96.10;;;;;;4697822;30;20049;-78
2021/07/26 09:49:21;;;;;;;6.88;3.08;;;25.10;95.70;;;;;;4693874;30;20053;-78
2021/07/26 09:52:03;;;;;;;8.73;2.90;;;25.00;95.90;;;;;;4695147;30;20061;-78
2021/07/26 09:54:43;;;;;;;5.35;2.50;;;25.00;96.40;;;;;;4700350;30;20412;-78
2021/07/26 09:57:18;;;;;;;6.40;2.72;;;25.00;96.00;;;;;;4691052;30;20084;-78
2021/07/26 09:59:48;;;;;;;8.57;3.20;;;25.00;96.20;;;;;;4682292;30;20507;-78
2021/07/26 10:02:21;;;;;;;6.63;2.97;;;25.00;96.00;;;;;;4683461;30;20049;-78
2021/07/26 10:04:48;;;;;;;7.45;3.50;;;24.90;96.60;;;;;;4693392;30;20092;-78
2021/07/26 10:07:15;;;;;;;11.07;2.72;;;24.70;96.80;;;;;;4659130;30;20068;-78
2021/07/26 10:09:42;;;;;;;8.02;3.40;;;24.80;96.80;;;;;;4663766;30;20049;-78
2021/07/26 10:12:10;;;;;;;8.77;3.40;;;24.90;96.80;;;;;;4669847;30;20176;-78
2021/07/26 10:14:38;;;;;;;8.15;3.42;;;24.90;96.50;;;;;;4677951;30;20063;-78
2021/07/26 10:17:04;;;;;;;5.88;2.92;;;24.80;96.70;;;;;;4686481;30;20056;-78
2021/07/26 10:19:31;;;;;;;8.18;3.47;;;25.00;96.80;;;;;;4675491;30;20053;-78
2021/07/26 10:21:57;;;;;;;7.00;2.90;;;25.10;96.50;;;;;;4663957;30;20099;-78
2021/07/26 10:24:29;;;;;;;6.22;2.80;;;25.00;96.80;;;;;;4678001;30;20052;-78
2021/07/26 10:26:58;;;;;;;7.35;2.95;;;24.70;96.40;;;;;;4681352;30;20385;-78
2021/07/26 10:29:54;;;;;;;5.60;2.97;;;24.80;96.50;;;;;;4688399;30;20045;-78
2021/07/26 10:32:29;;;;;;;4.20;2.10;;;24.80;95.80;;;;;;4675706;30;20097;-78
2021/07/26 10:35:00;;;;;;;6.68;2.25;;;24.80;96.20;;;;;;4680481;30;20140;-78
2021/07/26 10:37:42;;;;;;;5.13;3.05;;;24.70;96.00;;;;;;4689887;30;20076;-78
2021/07/26 10:40:22;;;;;;;6.10;2.80;;;24.60;96.00;;;;;;4690289;30;20493;-78
2021/07/26 10:42:49;;;;;;;6.13;2.28;;;24.60;95.90;;;;;;4687415;30;20576;-78
2021/07/26 10:45:33;;;;;;;6.70;2.50;;;24.40;95.80;;;;;;4686290;30;21033;-78
2021/07/26 10:48:21;;;;;;;5.38;2.90;;;24.00;96.30;;;;;;4690777;30;20260;-78
2021/07/26 10:50:52;;;;;;;6.53;2.55;;;24.10;96.70;;;;;;4685131;30;20476;-78
2021/07/26 10:53:36;;;;;;;6.50;2.60;;;24.10;96.20;;;;;;4682111;30;20858;-78
2021/07/26 10:56:08;;;;;;;7.68;3.33;;;24.20;96.40;;;;;;4685455;30;20299;-78
2021/07/26 10:58:40;;;;;;;7.30;3.05;;;24.40;96.20;;;;;;4686086;30;20112;-78
2021/07/26 11:01:24;;;;;;;9.27;2.90;;;24.80;96.60;;;;;;4685912;30;20140;-78
2021/07/26 11:03:56;;;;;;;6.50;3.00;;;25.00;95.60;;;;;;4693048;30;20052;-78
2021/07/26 11:06:44;;;;;;;6.32;2.78;;;25.20;95.60;;;;;;4690208;30;20179;-78
2021/07/26 11:09:45;;;;;;;7.20;2.70;;;25.30;95.80;;;;;;4684640;30;20067;-78
2021/07/26 11:12:11;;;;;;;9.35;3.35;;;25.30;95.40;;;;;;4689748;30;20072;-78
2021/07/26 11:14:37;;;;;;;7.70;2.53;;;25.50;94.80;;;;;;4674137;30;20633;-78
2021/07/26 11:17:07;;;;;;;5.38;2.45;;;25.60;94.90;;;;;;4678828;30;20060;-78
2021/07/26 11:19:44;;;;;;;6.95;2.95;;;25.80;95.00;;;;;;4676654;30;20076;-78
2021/07/26 11:22:24;;;;;;;6.55;2.63;;;25.70;94.40;;;;;;4695490;30;20056;-78
2021/07/26 11:25:03;;;;;;;5.28;2.50;;;25.50;94.30;;;;;;4695084;30;20041;-78
2021/07/26 11:27:32;;;;;;;6.25;2.80;;;25.50;94.60;;;;;;4690799;30;20480;-78
2021/07/26 11:29:58;;;;;;;5.53;2.55;;;25.60;94.40;;;;;;4689829;30;20048;-78
2021/07/26 11:32:25;;;;;;;5.03;2.78;;;25.30;94.30;;;;;;4671586;30;20060;-78
2021/07/26 11:34:58;;;;;;;6.03;2.92;;;25.70;94.40;;;;;;4691512;30;20826;-78
2021/07/26 11:37:31;;;;;;;5.93;2.15;;;25.90;94.40;;;;;;4690608;30;20525;-78
2021/07/26 11:40:08;;;;;;;7.15;2.58;;;25.80;93.80;;;;;;4690535;30;20105;-78
2021/07/26 11:42:39;;;;;;;6.72;3.28;;;25.60;93.70;;;;;;4671742;30;20629;-78
2021/07/26 11:45:15;;;;;;;5.68;2.80;;;25.90;94.10;;;;;;4686054;30;20060;-78
2021/07/26 11:47:48;;;;;;;5.47;2.80;;;25.80;93.60;;;;;;4676830;30;20563;-78
2021/07/26 11:50:18;;;;;;;8.35;2.95;;;25.70;94.10;;;;;;4684279;30;20053;-78
2021/07/26 11:52:57;;;;;;;8.27;2.63;;;26.00;93.60;;;;;;4673934;30;20048;-78
2021/07/26 11:55:30;;;;;;;7.15;3.10;;;26.20;93.70;;;;;;4679650;30;20451;-77
2021/07/26 11:58:09;;;;;;;6.50;3.17;;;26.00;93.30;;;;;;4675028;30;20504;-78
2021/07/26 12:00:39;;;;;;;5.55;2.70;;;25.90;93.70;;;;;;4678063;30;20049;-78
2021/07/26 12:03:06;;;;;;;6.50;2.83;;;25.60;93.70;;;;;;4672113;30;20400;-78
2021/07/26 12:05:33;;;;;;;7.07;3.30;;;25.70;93.90;;;;;;4676961;30;20049;-78
2021/07/26 12:08:00;;;;;;;9.07;3.13;;;25.50;94.00;;;;;;4683829;30;20045;-78
2021/07/26 12:10:36;;;;;;;8.23;2.85;;;25.50;94.70;;;;;;4676709;30;20091;-78
2021/07/26 12:13:18;;;;;;;8.40;3.15;;;25.70;94.80;;;;;;4677185;30;20444;-79
2021/07/26 12:15:45;;;;;;;8.65;3.45;;;25.60;94.50;;;;;;4680004;30;20085;-78
2021/07/26 12:18:32;;;;;;;6.90;3.15;;;25.60;94.90;;;;;;4682075;30;20131;-78
2021/07/26 12:20:59;;;;;;;5.60;3.03;;;25.50;94.40;;;;;;4682586;30;20480;-78
2021/07/26 12:23:26;;;;;;;7.65;3.47;;;25.40;94.60;;;;;;4680142;30;20524;-78
2021/07/26 12:25:54;;;;;;;12.10;3.33;;;25.50;94.30;;;;;;4670759;30;20037;-78
2021/07/26 12:28:21;;;;;;;6.75;2.95;;;25.50;94.50;;;;;;4681456;30;20456;-78
2021/07/26 12:30:59;;;;;;;7.63;3.13;;;25.60;94.60;;;;;;4673193;30;20059;-78
2021/07/26 12:33:27;;;;;;;6.03;3.30;;;25.70;94.50;;;;;;4684899;30;20092;-78
2021/07/26 12:36:12;;;;;;;8.52;3.55;;;25.80;94.40;;;;;;4669862;30;20491;-78
2021/07/26 12:38:39;;;;;;;8.68;2.72;;;25.60;93.70;;;;;;4668386;30;20053;-78
2021/07/26 12:41:08;;;;;;;6.60;2.80;;;25.50;94.40;;;;;;4689237;30;20033;-78
2021/07/26 12:44:16;;;;;;;6.45;3.08;;;25.80;94.50;;;;;;4689353;30;20046;-78
2021/07/26 12:46:48;;;;;;;6.28;3.00;;;25.90;93.80;;;;;;4688808;30;20069;-79
2021/07/26 12:49:25;;;;;;;7.78;3.30;;;25.80;93.40;;;;;;4682013;30;20041;-79
2021/07/26 12:51:52;;;;;;;7.03;3.10;;;25.80;93.80;;;;;;4692794;30;20045;-78
2021/07/26 12:54:19;;;;;;;6.28;3.00;;;25.90;94.00;;;;;;4683638;30;20061;-79
2021/07/26 12:56:45;;;;;;;8.55;2.85;;;26.10;93.20;;;;;;4700326;30;20132;-79
2021/07/26 12:59:11;;;;;;;9.48;3.40;;;26.20;93.30;;;;;;4686270;30;20089;-79
2021/07/26 13:01:37;;;;;;;8.48;2.97;;;26.00;93.30;;;;;;4683610;30;20088;-79
2021/07/26 13:04:06;;;;;;;7.70;3.15;;;26.00;93.70;;;;;;4707716;30;20057;-79
2021/07/26 13:06:31;;;;;;;5.95;2.88;;;26.10;93.60;;;;;;4712535;30;20033;-79
2021/07/26 13:08:57;;;;;;;6.38;2.92;;;26.10;93.80;;;;;;4679112;30;20076;-79
2021/07/26 13:11:23;;;;;;;8.50;3.05;;;26.00;93.60;;;;;;4690791;30;20412;-79
2021/07/26 13:13:48;;;;;;;5.75;2.70;;;26.20;93.10;;;;;;4678705;30;20563;-79
2021/07/26 13:16:18;;;;;;;9.52;3.15;;;26.30;93.00;;;;;;4687934;30;20045;-79
2021/07/26 13:18:44;;;;;;;7.93;3.00;;;26.30;92.80;;;;;;4675078;30;20060;-79
2021/07/26 13:21:10;;;;;;;7.32;2.85;;;26.30;92.90;;;;;;4679528;30;20060;-79
2021/07/26 13:23:36;;;;;;;5.50;3.15;;;26.20;92.80;;;;;;4680417;30;20484;-79
2021/07/26 13:26:04;;;;;;;6.07;3.08;;;26.20;92.20;;;;;;4689680;30;20051;-78
2021/07/26 13:28:29;;;;;;;6.78;3.55;;;26.30;92.90;;;;;;4677790;30;20076;-78
2021/07/26 13:30:55;;;;;;;7.13;3.05;;;26.40;92.60;;;;;;4684705;30;20056;-79
2021/07/26 13:33:22;;;;;;;5.63;2.65;;;26.30;92.20;;;;;;4681918;30;20153;-78
2021/07/26 13:35:48;;;;;;;9.15;2.88;;;26.40;92.50;;;;;;4675456;30;20045;-79
2021/07/26 13:38:14;;;;;;;5.05;2.85;;;26.20;92.00;;;;;;4677588;30;20140;-79
2021/07/26 13:40:40;;;;;;;7.38;3.40;;;26.10;92.00;;;;;;4680016;30;20049;-79
2021/07/26 13:43:05;;;;;;;8.60;4.20;;;26.00;92.30;;;;;;4679581;30;20057;-79
2021/07/26 13:45:32;;;;;;;177.90;130.25;;;25.90;92.40;;;;;;4674850;30;20037;-79
2021/07/26 13:48:01;;;;;;;16.48;10.77;;;25.80;92.30;;;;;;4690624;30;20045;-79
2021/07/26 13:50:27;;;;;;;8.85;4.32;;;25.70;92.90;;;;;;4694717;30;20452;-78
2021/07/26 13:52:53;;;;;;;7.80;3.80;;;25.80;93.00;;;;;;4692058;30;20693;-79
2021/07/26 13:55:19;;;;;;;6.40;3.13;;;26.00;93.00;;;;;;4694505;30;20045;-78
2021/07/26 13:57:45;;;;;;;4.60;2.55;;;26.20;92.40;;;;;;4673834;30;20122;-79
2021/07/26 14:00:12;;;;;;;7.15;3.03;;;26.20;92.40;;;;;;4689486;30;20391;-78
2021/07/26 14:02:41;;;;;;;9.02;2.90;;;26.20;91.90;;;;;;4689715;30;20993;-78
2021/07/26 14:05:08;;;;;;;4.78;2.55;;;26.10;91.70;;;;;;4692028;30;20404;-79
2021/07/26 14:07:34;;;;;;;6.25;2.92;;;26.10;92.00;;;;;;4681121;30;20083;-79
2021/07/26 14:10:00;;;;;;;6.95;3.03;;;26.00;92.10;;;;;;4678603;30;20053;-79
2021/07/26 14:12:25;;;;;;;8.10;2.58;;;26.00;91.90;;;;;;4676309;30;20056;-79
2021/07/26 14:14:51;;;;;;;5.30;2.80;;;25.90;92.00;;;;;;4687878;30;20049;-79
2021/07/26 14:17:17;;;;;;;7.10;2.90;;;25.80;91.30;;;;;;4675681;30;20549;-78
2021/07/26 14:19:45;;;;;;;9.07;3.03;;;25.80;91.30;;;;;;4679054;30;20096;-78
2021/07/26 14:22:11;;;;;;;5.97;2.78;;;25.80;92.00;;;;;;4672862;30;20442;-79
2021/07/26 14:24:37;;;;;;;7.13;3.28;;;25.90;91.90;;;;;;4677970;30;20053;-79
2021/07/26 14:27:04;;;;;;;5.65;2.67;;;25.80;91.90;;;;;;4689453;30;20072;-78
2021/07/26 14:29:30;;;;;;;4.95;2.63;;;25.80;92.20;;;;;;4678438;30;20160;-79
2021/07/26 14:31:55;;;;;;;7.05;2.85;;;25.80;92.10;;;;;;4691573;30;20049;-78
2021/07/26 14:50:59;;;;;;;10.20;3.00;;;25.80;91.90;;;;;;4735583;30;20052;-78
2021/07/26 15:19:54;;;;;;;7.07;2.78;;;25.80;91.30;;;;;;4589562;31;20059;-78
2021/07/26 15:38:58;;;;;;;;;;;;;;;;;;;;;
2021/07/26 15:42:29;;;;;;;;;;;;;;;;;;;;;
2021/07/26 16:20:24;;;;;;;;;;;;;;;;;;;;;
2021/07/26 16:36:15;;;;;;;10.45;3.47;;;24.80;92.80;;;;;;4742698;29;20062;-78
2021/07/26 16:42:22;;;;;;;6.82;3.88;;;24.80;92.90;;;;;;4691014;30;20116;-78
2021/07/26 16:45:22;;;;;;;8.43;3.30;;;24.80;93.20;;;;;;4693089;30;20038;-78
2021/07/26 16:51:46;;;;;;;8.70;3.35;;;24.80;93.60;;;;;;4670759;30;20218;-78
2021/07/26 16:55:13;;;;;;;;;;;;;;;;;;;;;
2021/07/26 16:57:58;;;;;;;9.13;3.92;;;24.80;93.50;;;;;;4690845;30;20047;-78
2021/07/26 17:00:29;;;;;;;6.78;3.70;;;24.80;93.40;;;;;;4708319;30;20053;-79
2021/07/26 17:02:58;;;;;;;6.55;3.50;;;24.80;93.80;;;;;;4716123;24;20440;-79
2021/07/26 17:05:24;;;;;;;7.88;2.90;;;24.80;93.50;;;;;;4755019;30;20048;-78
2021/07/26 17:07:50;;;;;;;11.90;3.50;;;24.80;93.70;;;;;;4764178;30;20131;-80
2021/07/26 17:10:15;;;;;;;9.07;3.70;;;24.70;93.30;;;;;;4762321;30;20055;-79
2021/07/26 17:12:41;;;;;;;8.30;3.40;;;24.60;93.30;;;;;;4744593;30;20039;-78
2021/07/26 17:15:08;;;;;;;6.88;3.63;;;24.60;93.00;;;;;;4746099;30;20772;-78
2021/07/26 17:17:34;;;;;;;5.50;2.90;;;24.50;93.40;;;;;;4746010;30;20051;-78
2021/07/26 17:19:59;;;;;;;7.05;3.92;;;24.50;93.60;;;;;;4726198;30;20226;-78
2021/07/26 17:22:26;;;;;;;7.35;3.25;;;24.60;93.80;;;;;;4739781;30;20130;-78
2021/07/26 17:24:52;;;;;;;9.80;3.63;;;24.50;93.90;;;;;;4736947;30;20048;-78
2021/07/26 17:27:18;;;;;;;9.30;3.55;;;24.50;93.50;;;;;;4739219;30;20044;-78
2021/07/26 17:29:43;;;;;;;10.10;3.88;;;24.50;93.50;;;;;;4765121;30;20129;-78
2021/07/26 17:32:09;;;;;;;7.28;3.70;;;24.50;93.80;;;;;;4746104;30;20130;-78
2021/07/26 17:34:34;;;;;;;9.00;3.80;;;24.50;93.70;;;;;;4768443;30;20114;-78
2021/07/26 17:37:00;;;;;;;8.05;3.63;;;24.30;92.70;;;;;;4760149;30;20046;-78
2021/07/26 17:39:26;;;;;;;8.82;4.15;;;24.20;92.80;;;;;;4750280;30;20544;-78
2021/07/26 17:41:52;;;;;;;6.70;3.42;;;24.20;93.10;;;;;;4751833;30;20040;-78
2021/07/26 17:44:18;;;;;;;9.07;3.80;;;24.30;93.60;;;;;;4747230;30;20075;-78
2021/07/26 17:46:44;;;;;;;9.10;3.15;;;24.30;93.70;;;;;;4730773;30;20974;-78
2021/07/26 17:49:14;;;;;;;10.25;3.65;;;24.40;93.50;;;;;;4726802;30;20142;-78
2021/07/26 17:51:40;;;;;;;7.97;3.80;;;24.40;93.70;;;;;;4737599;30;20044;-78
2021/07/26 17:54:06;;;;;;;7.82;3.95;;;24.40;94.40;;;;;;4722655;30;20059;-78
2021/07/26 17:56:32;;;;;;;9.43;3.55;;;24.30;94.70;;;;;;4729494;30;20182;-78
2021/07/26 17:58:59;;;;;;;8.55;3.95;;;24.30;94.90;;;;;;4722026;30;20083;-78
2021/07/26 18:01:37;;;;;;;8.82;3.83;;;24.30;94.70;;;;;;4738217;30;21093;-78
2021/07/26 18:04:04;;;;;;;10.13;3.95;;;24.10;94.80;;;;;;4713040;30;20313;-78
2021/07/26 18:06:30;;;;;;;10.23;4.00;;;24.10;95.10;;;;;;4704200;30;20106;-78
2021/07/26 18:08:56;;;;;;;9.88;4.20;;;24.00;94.90;;;;;;4705775;30;20664;-77
2021/07/26 18:11:28;;;;;;;6.60;3.88;;;24.00;95.50;;;;;;4715988;30;20323;-76
2021/07/26 18:13:53;;;;;;;7.35;4.38;;;23.90;95.60;;;;;;4733005;30;20044;-78
2021/07/26 18:16:19;;;;;;;9.85;3.92;;;23.90;95.80;;;;;;4730429;30;20056;-78
2021/07/26 19:37:16;;;;;;;;;;;;;;;;;;;;;
2021/07/26 21:49:21;;;;;;;;;;;;;;;;;;;;;
2021/07/26 23:03:08;;;;;;;;;;;;;;;;;;;;;
2021/07/26 23:20:33;;;;;;;9.20;4.78;;;19.60;99.90;;;;;;4652867;30;20049;-78
2021/07/26 23:57:21;;;;;;;9.63;4.38;;;19.30;99.90;;;;;;4716676;30;20095;-77
